ADDS METAR Data INFO
IDs: Format: Raw Decoded Include TAF

Data at: 2040 UTC 20 Jul 2018

KXNA 201955Z 18003KT 10SM CLR 37/20 A2988
KXNA 201855Z VRB05KT 10SM CLR 36/20 A2988
KXNA 201755Z VRB06KT 10SM CLR 35/20 A2989
KXNA 201655Z 2007KT 10SM CLR 34/20 A2991
KXNA 201555Z 24006KT 10SM CLR 32/20 A2991
KXNA 201455Z 22009G18KT 10SM CLR 31/20 A2990
KXNA 201355Z 20007KT 10SM CLR 29/21 A2991
KXNA 201255Z 19004KT 10SM CLR 27/21 A2990
KXNA 201201Z 19003KT 10SM CLR 26/19 A2988
KXNA 201058Z 19006KT 10SM -RA CLR 25/20 A2986
KXNA 201018Z 17005KT 10SM -RA CLR 26/20 A2986
KXNA 200353Z 11004KT 10SM CLR 26/18 A2991
KXNA 200254Z 13009KT 10SM CLR 27/18 A2990
KXNA 200154Z 11004KT 10SM -RA SCT060 27/19 A2989
KXNA 200153Z 11004KT 10SM -RA SCT060 33/22 A2989
KXNA 200055Z 13005KT 10SM CLR 33/22 A2988
KXNA 200053Z 13005KT 10SM CLR 33/22 A2988
KXNA 192353Z 14008KT 10SM CLR 35/20 A2987
KXNA 192253Z 14006KT 10SM CLR 36/20 A2986
KXNA 192153Z 11006KT 10SM CLR 36/20 A2986
KXNA 192055Z 18005KT 10SM CLR 35/22 A2989
KXNA 192053Z 17005KT 10SM CLR 35/22 A2989
KXNA 191955Z 20003KT 10SM CLR 35/22 A2989
KXNA 191953Z 22003KT 10SM CLR 35/22 A2989
KXNA 191453Z 19006KT 10SM CLR 28/23 A2993 RMK AO2 SLP118 T02830228 58001
KXNA 191353Z 13004KT 10SM CLR 26/23 A2994 RMK AO2 SLP123 T02610228
KXNA 191253Z 07004KT 6SM BR CLR 24/22 A2994 RMK AO2 SLP123 T02390217
KXNA 191153Z 11003KT 5SM BR CLR 23/21 A2993 RMK AO2 SLP119 70002 T02280211 10239 20211 51001
KXNA 191053Z 12003KT 6SM BR CLR 22/21 A2993 RMK AO2 SLP118 T02220211
KXNA 191019Z AUTO 11003KT 8SM FEW007 22/21 A2993 RMK AO2 T02220211
KXNA 191005Z AUTO 00000KT 2 1/2SM BR SCT007 22/21 A2993 RMK AO2 T02170206
KXNA 190950Z AUTO 00000KT 4SM BR BKN008 22/20 A2993 RMK AO2 SLP120 T02170200
KXNA 190949Z AUTO 00000KT 4SM BR BKN008 22/20 A2993 RMK AO2
KXNA 190942Z AUTO 00000KT 2SM BR FEW008 22/20 A2994 RMK AO2 T02170200
KXNA 190933Z AUTO 00000KT 1 3/4SM BR CLR 22/20 A2993 RMK AO2 VIS 1V5 T02170200
KXNA 190853Z AUTO 15003KT 8SM CLR 23/21 A2993 RMK AO2 SLP118 T02280211 56013